sensor_id;sensor_type;location;lat;lon;timestamp;P1;durP1;ratioP1;P2;durP2;ratioP2
19087;SDS011;9676;50.916;13.352;2022-08-01T00:00:24;10.57;;;9.47;;
19087;SDS011;9676;50.916;13.352;2022-08-01T00:03:13;10.60;;;9.47;;
19087;SDS011;9676;50.916;13.352;2022-08-01T00:06:03;10.07;;;9.17;;
19087;SDS011;9676;50.916;13.352;2022-08-01T00:08:53;10.80;;;9.70;;
19087;SDS011;9676;50.916;13.352;2022-08-01T00:11:42;10.30;;;9.30;;
19087;SDS011;9676;50.916;13.352;2022-08-01T00:14:42;10.10;;;9.20;;
19087;SDS011;9676;50.916;13.352;2022-08-01T00:17:33;10.57;;;9.50;;
19087;SDS011;9676;50.916;13.352;2022-08-01T00:20:23;10.03;;;9.13;;
19087;SDS011;9676;50.916;13.352;2022-08-01T00:23:12;10.10;;;9.20;;
19087;SDS011;9676;50.916;13.352;2022-08-01T00:26:02;10.07;;;9.17;;
19087;SDS011;9676;50.916;13.352;2022-08-01T00:28:51;10.30;;;9.30;;
19087;SDS011;9676;50.916;13.352;2022-08-01T00:31:41;10.43;;;9.43;;
19087;SDS011;9676;50.916;13.352;2022-08-01T00:34:32;10.67;;;9.67;;
19087;SDS011;9676;50.916;13.352;2022-08-01T00:37:22;10.50;;;9.50;;
19087;SDS011;9676;50.916;13.352;2022-08-01T00:40:12;10.30;;;9.40;;
19087;SDS011;9676;50.916;13.352;2022-08-01T00:43:01;10.20;;;9.30;;
19087;SDS011;9676;50.916;13.352;2022-08-01T00:45:51;10.13;;;9.17;;
19087;SDS011;9676;50.916;13.352;2022-08-01T00:48:40;10.53;;;9.53;;
19087;SDS011;9676;50.916;13.352;2022-08-01T00:51:32;10.27;;;9.30;;
19087;SDS011;9676;50.916;13.352;2022-08-01T00:54:22;10.20;;;9.30;;
19087;SDS011;9676;50.916;13.352;2022-08-01T00:57:13;10.40;;;9.50;;
19087;SDS011;9676;50.916;13.352;2022-08-01T01:00:22;10.30;;;9.40;;
19087;SDS011;9676;50.916;13.352;2022-08-01T01:03:13;10.60;;;9.70;;
19087;SDS011;9676;50.916;13.352;2022-08-01T01:06:10;9.77;;;8.93;;
19087;SDS011;9676;50.916;13.352;2022-08-01T01:09:19;10.23;;;9.33;;
19087;SDS011;9676;50.916;13.352;2022-08-01T01:12:22;10.40;;;9.43;;
19087;SDS011;9676;50.916;13.352;2022-08-01T01:15:26;10.10;;;9.20;;
19087;SDS011;9676;50.916;13.352;2022-08-01T01:18:24;10.30;;;9.30;;
19087;SDS011;9676;50.916;13.352;2022-08-01T01:21:35;11.27;;;9.53;;
19087;SDS011;9676;50.916;13.352;2022-08-01T01:24:37;10.70;;;9.70;;
19087;SDS011;9676;50.916;13.352;2022-08-01T01:27:45;10.57;;;9.57;;
19087;SDS011;9676;50.916;13.352;2022-08-01T01:30:42;10.53;;;9.53;;
19087;SDS011;9676;50.916;13.352;2022-08-01T01:33:35;10.43;;;9.50;;
19087;SDS011;9676;50.916;13.352;2022-08-01T01:36:33;10.57;;;9.57;;
19087;SDS011;9676;50.916;13.352;2022-08-01T01:39:24;11.13;;;10.03;;
19087;SDS011;9676;50.916;13.352;2022-08-01T01:42:18;11.13;;;9.93;;
19087;SDS011;9676;50.916;13.352;2022-08-01T01:45:08;10.80;;;9.80;;
19087;SDS011;9676;50.916;13.352;2022-08-01T01:48:00;12.83;;;9.50;;
19087;SDS011;9676;50.916;13.352;2022-08-01T01:50:51;10.73;;;9.60;;
19087;SDS011;9676;50.916;13.352;2022-08-01T01:53:41;10.67;;;9.67;;
19087;SDS011;9676;50.916;13.352;2022-08-01T01:56:32;10.60;;;9.60;;
19087;SDS011;9676;50.916;13.352;2022-08-01T01:59:36;10.43;;;9.40;;
19087;SDS011;9676;50.916;13.352;2022-08-01T02:02:28;10.30;;;9.40;;
19087;SDS011;9676;50.916;13.352;2022-08-01T02:05:19;10.70;;;9.63;;
19087;SDS011;9676;50.916;13.352;2022-08-01T02:08:10;11.07;;;9.60;;
19087;SDS011;9676;50.916;13.352;2022-08-01T02:11:04;10.80;;;9.80;;
19087;SDS011;9676;50.916;13.352;2022-08-01T02:14:09;10.80;;;9.70;;
19087;SDS011;9676;50.916;13.352;2022-08-01T02:17:00;10.93;;;9.83;;
19087;SDS011;9676;50.916;13.352;2022-08-01T02:19:51;10.63;;;9.63;;
19087;SDS011;9676;50.916;13.352;2022-08-01T02:22:44;10.60;;;9.60;;
19087;SDS011;9676;50.916;13.352;2022-08-01T02:25:39;10.80;;;9.80;;
19087;SDS011;9676;50.916;13.352;2022-08-01T02:28:56;10.20;;;9.30;;
19087;SDS011;9676;50.916;13.352;2022-08-01T02:31:51;10.30;;;9.40;;
19087;SDS011;9676;50.916;13.352;2022-08-01T02:34:43;10.23;;;9.33;;
19087;SDS011;9676;50.916;13.352;2022-08-01T02:37:38;10.30;;;9.40;;
19087;SDS011;9676;50.916;13.352;2022-08-01T02:40:34;10.43;;;9.47;;
19087;SDS011;9676;50.916;13.352;2022-08-01T02:43:28;10.30;;;9.40;;
19087;SDS011;9676;50.916;13.352;2022-08-01T02:46:31;10.33;;;9.43;;
19087;SDS011;9676;50.916;13.352;2022-08-01T02:49:25;10.50;;;9.50;;
19087;SDS011;9676;50.916;13.352;2022-08-01T02:52:18;10.60;;;9.50;;
19087;SDS011;9676;50.916;13.352;2022-08-01T02:55:11;10.33;;;9.33;;
19087;SDS011;9676;50.916;13.352;2022-08-01T02:58:03;10.43;;;9.50;;
19087;SDS011;9676;50.916;13.352;2022-08-01T03:00:56;10.87;;;9.87;;
19087;SDS011;9676;50.916;13.352;2022-08-01T03:03:49;13.20;;;9.50;;
19087;SDS011;9676;50.916;13.352;2022-08-01T03:06:39;10.50;;;9.50;;
19087;SDS011;9676;50.916;13.352;2022-08-01T03:09:32;10.70;;;9.70;;
19087;SDS011;9676;50.916;13.352;2022-08-01T03:12:26;10.60;;;9.70;;
19087;SDS011;9676;50.916;13.352;2022-08-01T03:15:19;10.60;;;9.67;;
19087;SDS011;9676;50.916;13.352;2022-08-01T03:18:12;11.00;;;10.00;;
19087;SDS011;9676;50.916;13.352;2022-08-01T03:21:03;11.20;;;10.10;;
19087;SDS011;9676;50.916;13.352;2022-08-01T03:23:54;10.53;;;9.53;;
19087;SDS011;9676;50.916;13.352;2022-08-01T03:26:46;11.20;;;10.10;;
19087;SDS011;9676;50.916;13.352;2022-08-01T03:29:37;10.90;;;9.90;;
19087;SDS011;9676;50.916;13.352;2022-08-01T03:32:29;10.70;;;9.70;;
19087;SDS011;9676;50.916;13.352;2022-08-01T03:35:19;11.30;;;10.20;;
19087;SDS011;9676;50.916;13.352;2022-08-01T03:38:12;10.60;;;9.60;;
19087;SDS011;9676;50.916;13.352;2022-08-01T03:41:08;11.30;;;10.30;;
19087;SDS011;9676;50.916;13.352;2022-08-01T03:44:02;11.13;;;10.13;;
19087;SDS011;9676;50.916;13.352;2022-08-01T03:46:58;10.97;;;9.93;;
19087;SDS011;9676;50.916;13.352;2022-08-01T03:49:52;10.97;;;9.97;;
19087;SDS011;9676;50.916;13.352;2022-08-01T03:52:44;11.30;;;10.30;;
19087;SDS011;9676;50.916;13.352;2022-08-01T03:55:35;11.50;;;10.40;;
19087;SDS011;9676;50.916;13.352;2022-08-01T03:58:26;11.00;;;10.00;;
19087;SDS011;9676;50.916;13.352;2022-08-01T04:01:17;11.23;;;10.20;;
19087;SDS011;9676;50.916;13.352;2022-08-01T04:04:07;11.50;;;10.27;;
19087;SDS011;9676;50.916;13.352;2022-08-01T04:06:58;10.73;;;9.70;;
19087;SDS011;9676;50.916;13.352;2022-08-01T04:09:51;11.13;;;10.10;;
19087;SDS011;9676;50.916;13.352;2022-08-01T04:12:41;11.03;;;9.93;;
19087;SDS011;9676;50.916;13.352;2022-08-01T04:15:30;16.13;;;9.93;;
19087;SDS011;9676;50.916;13.352;2022-08-01T04:18:20;10.70;;;9.77;;
19087;SDS011;9676;50.916;13.352;2022-08-01T04:21:09;11.20;;;10.10;;
19087;SDS011;9676;50.916;13.352;2022-08-01T04:24:01;11.10;;;10.10;;
19087;SDS011;9676;50.916;13.352;2022-08-01T04:26:56;10.63;;;9.63;;
19087;SDS011;9676;50.916;13.352;2022-08-01T04:29:47;10.83;;;9.83;;
19087;SDS011;9676;50.916;13.352;2022-08-01T04:32:40;10.50;;;9.60;;
19087;SDS011;9676;50.916;13.352;2022-08-01T04:35:32;11.17;;;10.07;;
19087;SDS011;9676;50.916;13.352;2022-08-01T04:38:44;11.70;;;9.50;;
19087;SDS011;9676;50.916;13.352;2022-08-01T04:41:39;10.40;;;9.50;;
19087;SDS011;9676;50.916;13.352;2022-08-01T04:44:29;10.70;;;9.70;;
19087;SDS011;9676;50.916;13.352;2022-08-01T04:47:19;10.30;;;9.40;;
19087;SDS011;9676;50.916;13.352;2022-08-01T04:50:10;10.30;;;9.30;;
19087;SDS011;9676;50.916;13.352;2022-08-01T04:53:00;11.30;;;10.20;;
19087;SDS011;9676;50.916;13.352;2022-08-01T04:55:51;11.50;;;9.90;;
19087;SDS011;9676;50.916;13.352;2022-08-01T04:58:42;11.00;;;10.00;;
19087;SDS011;9676;50.916;13.352;2022-08-01T05:01:32;10.73;;;9.73;;
19087;SDS011;9676;50.916;13.352;2022-08-01T05:04:21;11.50;;;10.40;;
19087;SDS011;9676;50.916;13.352;2022-08-01T05:07:11;11.07;;;9.97;;
19087;SDS011;9676;50.916;13.352;2022-08-01T05:10:03;16.40;;;14.67;;
19087;SDS011;9676;50.916;13.352;2022-08-01T05:12:54;20.33;;;17.13;;
19087;SDS011;9676;50.916;13.352;2022-08-01T05:15:45;15.77;;;13.87;;
19087;SDS011;9676;50.916;13.352;2022-08-01T05:18:34;13.70;;;12.30;;
19087;SDS011;9676;50.916;13.352;2022-08-01T05:21:23;12.50;;;11.30;;
19087;SDS011;9676;50.916;13.352;2022-08-01T05:24:13;11.60;;;10.50;;
19087;SDS011;9676;50.916;13.352;2022-08-01T05:27:03;12.07;;;10.10;;
19087;SDS011;9676;50.916;13.352;2022-08-01T05:29:53;10.50;;;9.50;;
19087;SDS011;9676;50.916;13.352;2022-08-01T05:32:44;10.37;;;9.37;;
19087;SDS011;9676;50.916;13.352;2022-08-01T05:35:34;10.23;;;9.33;;
19087;SDS011;9676;50.916;13.352;2022-08-01T05:38:34;10.40;;;9.40;;
19087;SDS011;9676;50.916;13.352;2022-08-01T05:41:24;10.00;;;9.10;;
19087;SDS011;9676;50.916;13.352;2022-08-01T05:44:13;10.10;;;9.20;;
19087;SDS011;9676;50.916;13.352;2022-08-01T05:47:03;9.90;;;9.00;;
19087;SDS011;9676;50.916;13.352;2022-08-01T05:49:54;10.17;;;9.10;;
19087;SDS011;9676;50.916;13.352;2022-08-01T05:52:43;10.10;;;9.20;;
19087;SDS011;9676;50.916;13.352;2022-08-01T05:55:33;10.20;;;9.30;;
19087;SDS011;9676;50.916;13.352;2022-08-01T05:58:23;9.90;;;9.00;;
19087;SDS011;9676;50.916;13.352;2022-08-01T06:01:12;10.20;;;9.27;;
19087;SDS011;9676;50.916;13.352;2022-08-01T06:04:02;9.97;;;9.07;;
19087;SDS011;9676;50.916;13.352;2022-08-01T06:06:53;10.40;;;9.50;;
19087;SDS011;9676;50.916;13.352;2022-08-01T06:09:43;10.33;;;9.33;;
19087;SDS011;9676;50.916;13.352;2022-08-01T06:12:32;10.00;;;9.10;;
19087;SDS011;9676;50.916;13.352;2022-08-01T06:15:22;10.20;;;9.10;;
19087;SDS011;9676;50.916;13.352;2022-08-01T06:18:12;9.90;;;9.00;;
19087;SDS011;9676;50.916;13.352;2022-08-01T06:21:02;9.87;;;9.03;;
19087;SDS011;9676;50.916;13.352;2022-08-01T06:23:53;9.93;;;9.03;;
19087;SDS011;9676;50.916;13.352;2022-08-01T06:26:42;10.20;;;9.30;;
19087;SDS011;9676;50.916;13.352;2022-08-01T06:29:32;10.10;;;9.20;;
19087;SDS011;9676;50.916;13.352;2022-08-01T06:32:22;10.23;;;9.33;;
19087;SDS011;9676;50.916;13.352;2022-08-01T06:35:14;10.10;;;9.20;;
19087;SDS011;9676;50.916;13.352;2022-08-01T06:38:03;10.37;;;9.43;;
19087;SDS011;9676;50.916;13.352;2022-08-01T06:40:54;10.83;;;9.83;;
19087;SDS011;9676;50.916;13.352;2022-08-01T06:43:44;10.90;;;9.90;;
19087;SDS011;9676;50.916;13.352;2022-08-01T06:46:34;11.00;;;9.90;;
19087;SDS011;9676;50.916;13.352;2022-08-01T06:49:23;10.33;;;9.43;;
19087;SDS011;9676;50.916;13.352;2022-08-01T06:52:13;10.47;;;9.57;;
19087;SDS011;9676;50.916;13.352;2022-08-01T06:55:03;10.17;;;9.27;;
19087;SDS011;9676;50.916;13.352;2022-08-01T06:57:55;10.67;;;9.67;;
19087;SDS011;9676;50.916;13.352;2022-08-01T07:00:44;10.17;;;9.27;;
19087;SDS011;9676;50.916;13.352;2022-08-01T07:03:34;10.40;;;9.50;;
19087;SDS011;9676;50.916;13.352;2022-08-01T07:06:41;10.23;;;9.30;;
19087;SDS011;9676;50.916;13.352;2022-08-01T07:09:30;10.67;;;9.67;;
19087;SDS011;9676;50.916;13.352;2022-08-01T07:12:19;10.60;;;9.60;;
19087;SDS011;9676;50.916;13.352;2022-08-01T07:15:10;12.90;;;9.53;;
19087;SDS011;9676;50.916;13.352;2022-08-01T07:18:00;10.40;;;9.40;;
19087;SDS011;9676;50.916;13.352;2022-08-01T07:20:51;10.63;;;9.67;;
19087;SDS011;9676;50.916;13.352;2022-08-01T07:23:43;10.10;;;9.10;;
19087;SDS011;9676;50.916;13.352;2022-08-01T07:26:33;10.20;;;9.30;;
19087;SDS011;9676;50.916;13.352;2022-08-01T07:29:22;10.70;;;9.60;;
19087;SDS011;9676;50.916;13.352;2022-08-01T07:32:14;16.13;;;12.17;;
19087;SDS011;9676;50.916;13.352;2022-08-01T07:35:04;11.40;;;10.20;;
19087;SDS011;9676;50.916;13.352;2022-08-01T07:37:55;11.60;;;10.40;;
19087;SDS011;9676;50.916;13.352;2022-08-01T07:40:44;11.20;;;10.17;;
19087;SDS011;9676;50.916;13.352;2022-08-01T07:43:34;12.43;;;9.80;;
19087;SDS011;9676;50.916;13.352;2022-08-01T07:46:24;10.80;;;9.80;;
19087;SDS011;9676;50.916;13.352;2022-08-01T07:49:14;10.90;;;9.90;;
19087;SDS011;9676;50.916;13.352;2022-08-01T07:52:04;12.87;;;11.00;;
19087;SDS011;9676;50.916;13.352;2022-08-01T07:54:54;12.70;;;11.50;;
19087;SDS011;9676;50.916;13.352;2022-08-01T07:57:44;12.60;;;11.40;;
19087;SDS011;9676;50.916;13.352;2022-08-01T08:00:33;12.47;;;11.27;;
19087;SDS011;9676;50.916;13.352;2022-08-01T08:03:23;13.37;;;12.07;;
19087;SDS011;9676;50.916;13.352;2022-08-01T08:06:14;12.53;;;11.37;;
19087;SDS011;9676;50.916;13.352;2022-08-01T08:09:03;12.77;;;11.57;;
19087;SDS011;9676;50.916;13.352;2022-08-01T08:11:52;15.13;;;13.53;;
19087;SDS011;9676;50.916;13.352;2022-08-01T08:14:42;12.90;;;11.60;;
19087;SDS011;9676;50.916;13.352;2022-08-01T08:17:31;12.87;;;11.57;;
19087;SDS011;9676;50.916;13.352;2022-08-01T08:20:22;12.37;;;11.17;;
19087;SDS011;9676;50.916;13.352;2022-08-01T08:23:15;11.60;;;10.50;;
19087;SDS011;9676;50.916;13.352;2022-08-01T08:26:30;11.00;;;10.00;;
19087;SDS011;9676;50.916;13.352;2022-08-01T08:29:19;10.67;;;9.67;;
19087;SDS011;9676;50.916;13.352;2022-08-01T08:32:10;11.00;;;10.00;;
19087;SDS011;9676;50.916;13.352;2022-08-01T08:34:59;11.07;;;9.97;;
19087;SDS011;9676;50.916;13.352;2022-08-01T08:37:49;10.53;;;9.53;;
19087;SDS011;9676;50.916;13.352;2022-08-01T08:40:43;14.03;;;12.63;;
19087;SDS011;9676;50.916;13.352;2022-08-01T08:43:34;12.80;;;11.50;;
19087;SDS011;9676;50.916;13.352;2022-08-01T08:46:24;11.00;;;10.00;;
19087;SDS011;9676;50.916;13.352;2022-08-01T08:49:16;10.57;;;9.67;;
19087;SDS011;9676;50.916;13.352;2022-08-01T08:52:09;10.50;;;9.50;;
19087;SDS011;9676;50.916;13.352;2022-08-01T08:54:59;9.70;;;8.90;;
19087;SDS011;9676;50.916;13.352;2022-08-01T08:57:50;9.10;;;8.30;;
19087;SDS011;9676;50.916;13.352;2022-08-01T09:00:41;9.30;;;8.50;;
19087;SDS011;9676;50.916;13.352;2022-08-01T09:03:34;9.60;;;8.70;;
19087;SDS011;9676;50.916;13.352;2022-08-01T09:06:24;9.67;;;8.77;;
19087;SDS011;9676;50.916;13.352;2022-08-01T09:09:14;11.43;;;8.80;;
19087;SDS011;9676;50.916;13.352;2022-08-01T09:12:04;8.83;;;8.03;;
19087;SDS011;9676;50.916;13.352;2022-08-01T09:14:56;9.00;;;8.30;;
19087;SDS011;9676;50.916;13.352;2022-08-01T09:17:45;8.90;;;8.13;;
19087;SDS011;9676;50.916;13.352;2022-08-01T09:20:35;8.60;;;7.90;;
19087;SDS011;9676;50.916;13.352;2022-08-01T09:23:30;12.73;;;11.40;;
19087;SDS011;9676;50.916;13.352;2022-08-01T09:26:21;13.17;;;11.87;;
19087;SDS011;9676;50.916;13.352;2022-08-01T09:29:23;10.90;;;9.80;;
19087;SDS011;9676;50.916;13.352;2022-08-01T09:32:26;10.07;;;9.10;;
19087;SDS011;9676;50.916;13.352;2022-08-01T09:35:22;9.70;;;8.80;;
19087;SDS011;9676;50.916;13.352;2022-08-01T09:38:18;9.30;;;8.50;;
19087;SDS011;9676;50.916;13.352;2022-08-01T09:41:10;9.07;;;8.27;;
19087;SDS011;9676;50.916;13.352;2022-08-01T09:44:00;8.63;;;7.93;;
19087;SDS011;9676;50.916;13.352;2022-08-01T09:46:51;8.73;;;8.00;;
19087;SDS011;9676;50.916;13.352;2022-08-01T09:49:43;8.30;;;7.60;;
19087;SDS011;9676;50.916;13.352;2022-08-01T09:52:38;9.50;;;8.60;;
19087;SDS011;9676;50.916;13.352;2022-08-01T09:55:28;9.00;;;8.20;;
19087;SDS011;9676;50.916;13.352;2022-08-01T09:58:17;9.17;;;8.37;;
19087;SDS011;9676;50.916;13.352;2022-08-01T10:01:08;8.60;;;7.90;;
19087;SDS011;9676;50.916;13.352;2022-08-01T10:04:04;8.93;;;8.13;;
19087;SDS011;9676;50.916;13.352;2022-08-01T10:07:04;8.80;;;8.10;;
19087;SDS011;9676;50.916;13.352;2022-08-01T10:10:08;8.43;;;7.73;;
19087;SDS011;9676;50.916;13.352;2022-08-01T10:13:01;9.10;;;8.30;;
19087;SDS011;9676;50.916;13.352;2022-08-01T10:15:51;8.30;;;7.70;;
19087;SDS011;9676;50.916;13.352;2022-08-01T10:18:44;8.60;;;7.90;;
19087;SDS011;9676;50.916;13.352;2022-08-01T10:21:35;8.20;;;7.60;;
19087;SDS011;9676;50.916;13.352;2022-08-01T10:24:46;8.50;;;7.80;;
19087;SDS011;9676;50.916;13.352;2022-08-01T10:27:37;8.10;;;7.50;;
19087;SDS011;9676;50.916;13.352;2022-08-01T10:30:28;8.23;;;7.60;;
19087;SDS011;9676;50.916;13.352;2022-08-01T10:33:18;8.60;;;7.90;;
19087;SDS011;9676;50.916;13.352;2022-08-01T10:36:31;8.23;;;7.60;;
19087;SDS011;9676;50.916;13.352;2022-08-01T10:39:27;8.37;;;7.67;;
19087;SDS011;9676;50.916;13.352;2022-08-01T10:42:20;8.47;;;7.67;;
19087;SDS011;9676;50.916;13.352;2022-08-01T10:45:11;8.60;;;7.90;;
19087;SDS011;9676;50.916;13.352;2022-08-01T10:48:08;8.20;;;7.60;;
19087;SDS011;9676;50.916;13.352;2022-08-01T10:51:08;8.70;;;8.00;;
19087;SDS011;9676;50.916;13.352;2022-08-01T10:54:05;8.40;;;7.70;;
19087;SDS011;9676;50.916;13.352;2022-08-01T10:56:56;7.97;;;7.37;;
19087;SDS011;9676;50.916;13.352;2022-08-01T10:59:50;8.07;;;7.47;;
19087;SDS011;9676;50.916;13.352;2022-08-01T11:02:56;8.17;;;7.57;;
19087;SDS011;9676;50.916;13.352;2022-08-01T11:05:48;7.30;;;6.80;;
19087;SDS011;9676;50.916;13.352;2022-08-01T11:08:43;9.70;;;6.65;;
19087;SDS011;9676;50.916;13.352;2022-08-01T11:18:29;7.68;;;6.90;;
19087;SDS011;9676;50.916;13.352;2022-08-01T11:24:54;7.55;;;7.05;;
19087;SDS011;9676;50.916;13.352;2022-08-01T11:27:48;9.33;;;8.43;;
19087;SDS011;9676;50.916;13.352;2022-08-01T11:31:30;8.60;;;7.90;;
19087;SDS011;9676;50.916;13.352;2022-08-01T11:37:41;8.20;;;7.60;;
19087;SDS011;9676;50.916;13.352;2022-08-01T11:40:31;8.30;;;7.70;;
19087;SDS011;9676;50.916;13.352;2022-08-01T11:43:20;8.40;;;7.80;;
19087;SDS011;9676;50.916;13.352;2022-08-01T11:46:10;8.60;;;7.90;;
19087;SDS011;9676;50.916;13.352;2022-08-01T11:52:16;8.40;;;7.70;;
19087;SDS011;9676;50.916;13.352;2022-08-01T11:55:10;8.53;;;7.83;;
19087;SDS011;9676;50.916;13.352;2022-08-01T11:58:03;8.53;;;7.83;;
19087;SDS011;9676;50.916;13.352;2022-08-01T12:01:08;26.13;;;19.17;;
19087;SDS011;9676;50.916;13.352;2022-08-01T12:04:02;14.00;;;12.50;;
19087;SDS011;9676;50.916;13.352;2022-08-01T12:06:54;11.90;;;10.70;;
19087;SDS011;9676;50.916;13.352;2022-08-01T12:09:44;10.67;;;9.67;;
19087;SDS011;9676;50.916;13.352;2022-08-01T12:12:35;10.07;;;9.17;;
19087;SDS011;9676;50.916;13.352;2022-08-01T12:15:31;9.37;;;8.57;;
19087;SDS011;9676;50.916;13.352;2022-08-01T12:18:23;9.43;;;8.57;;
19087;SDS011;9676;50.916;13.352;2022-08-01T12:21:12;9.37;;;8.57;;
19087;SDS011;9676;50.916;13.352;2022-08-01T12:24:03;9.00;;;8.30;;
19087;SDS011;9676;50.916;13.352;2022-08-01T12:26:53;8.70;;;8.00;;
19087;SDS011;9676;50.916;13.352;2022-08-01T12:29:42;8.40;;;7.70;;
19087;SDS011;9676;50.916;13.352;2022-08-01T12:32:33;8.90;;;8.20;;
19087;SDS011;9676;50.916;13.352;2022-08-01T12:35:25;9.17;;;8.37;;
19087;SDS011;9676;50.916;13.352;2022-08-01T12:38:18;9.20;;;8.40;;
19087;SDS011;9676;50.916;13.352;2022-08-01T12:41:13;9.10;;;8.30;;
19087;SDS011;9676;50.916;13.352;2022-08-01T12:44:04;8.60;;;7.90;;
19087;SDS011;9676;50.916;13.352;2022-08-01T12:47:04;9.20;;;8.40;;
19087;SDS011;9676;50.916;13.352;2022-08-01T12:49:55;8.60;;;7.90;;
19087;SDS011;9676;50.916;13.352;2022-08-01T12:52:45;8.50;;;7.80;;
19087;SDS011;9676;50.916;13.352;2022-08-01T12:55:43;8.50;;;7.80;;
19087;SDS011;9676;50.916;13.352;2022-08-01T12:58:47;8.30;;;7.70;;
19087;SDS011;9676;50.916;13.352;2022-08-01T13:01:37;8.57;;;7.87;;
19087;SDS011;9676;50.916;13.352;2022-08-01T13:04:27;8.60;;;7.90;;
19087;SDS011;9676;50.916;13.352;2022-08-01T13:07:17;8.30;;;7.70;;
19087;SDS011;9676;50.916;13.352;2022-08-01T13:10:07;8.97;;;8.07;;
19087;SDS011;9676;50.916;13.352;2022-08-01T13:12:57;8.90;;;8.10;;
19087;SDS011;9676;50.916;13.352;2022-08-01T13:15:48;8.17;;;7.57;;
19087;SDS011;9676;50.916;13.352;2022-08-01T13:18:53;8.70;;;8.00;;
19087;SDS011;9676;50.916;13.352;2022-08-01T13:21:52;8.20;;;7.60;;
19087;SDS011;9676;50.916;13.352;2022-08-01T13:24:43;8.63;;;7.83;;
19087;SDS011;9676;50.916;13.352;2022-08-01T13:27:33;8.80;;;8.10;;
19087;SDS011;9676;50.916;13.352;2022-08-01T13:30:25;8.40;;;7.80;;
19087;SDS011;9676;50.916;13.352;2022-08-01T13:33:16;8.30;;;7.67;;
19087;SDS011;9676;50.916;13.352;2022-08-01T13:36:05;8.50;;;7.80;;
19087;SDS011;9676;50.916;13.352;2022-08-01T13:38:55;8.40;;;7.70;;
19087;SDS011;9676;50.916;13.352;2022-08-01T13:42:12;8.40;;;7.70;;
19087;SDS011;9676;50.916;13.352;2022-08-01T13:45:06;8.13;;;7.53;;
19087;SDS011;9676;50.916;13.352;2022-08-01T13:48:01;8.60;;;7.90;;
19087;SDS011;9676;50.916;13.352;2022-08-01T13:51:06;8.20;;;7.50;;
19087;SDS011;9676;50.916;13.352;2022-08-01T13:54:09;8.40;;;7.70;;
19087;SDS011;9676;50.916;13.352;2022-08-01T13:56:58;8.50;;;7.80;;
19087;SDS011;9676;50.916;13.352;2022-08-01T13:59:48;8.53;;;7.80;;
19087;SDS011;9676;50.916;13.352;2022-08-01T14:02:39;8.70;;;8.00;;
19087;SDS011;9676;50.916;13.352;2022-08-01T14:05:29;8.80;;;8.10;;
19087;SDS011;9676;50.916;13.352;2022-08-01T14:08:20;8.40;;;7.70;;
19087;SDS011;9676;50.916;13.352;2022-08-01T14:11:11;8.40;;;7.70;;
19087;SDS011;9676;50.916;13.352;2022-08-01T14:14:01;8.50;;;7.80;;
19087;SDS011;9676;50.916;13.352;2022-08-01T14:16:51;8.50;;;7.80;;
19087;SDS011;9676;50.916;13.352;2022-08-01T14:19:40;8.60;;;7.90;;
19087;SDS011;9676;50.916;13.352;2022-08-01T14:22:32;8.80;;;8.00;;
19087;SDS011;9676;50.916;13.352;2022-08-01T14:25:23;8.70;;;8.00;;
19087;SDS011;9676;50.916;13.352;2022-08-01T14:28:33;8.60;;;7.90;;
19087;SDS011;9676;50.916;13.352;2022-08-01T14:31:22;8.80;;;8.10;;
19087;SDS011;9676;50.916;13.352;2022-08-01T14:34:14;8.60;;;7.90;;
19087;SDS011;9676;50.916;13.352;2022-08-01T14:37:04;8.77;;;8.07;;
19087;SDS011;9676;50.916;13.352;2022-08-01T14:39:54;8.70;;;8.00;;
19087;SDS011;9676;50.916;13.352;2022-08-01T14:42:46;8.60;;;7.90;;
19087;SDS011;9676;50.916;13.352;2022-08-01T14:45:36;8.80;;;8.10;;
19087;SDS011;9676;50.916;13.352;2022-08-01T14:48:25;8.60;;;7.90;;
19087;SDS011;9676;50.916;13.352;2022-08-01T14:51:16;8.70;;;8.00;;
19087;SDS011;9676;50.916;13.352;2022-08-01T14:54:06;9.10;;;8.30;;
19087;SDS011;9676;50.916;13.352;2022-08-01T14:56:55;8.67;;;7.93;;
19087;SDS011;9676;50.916;13.352;2022-08-01T14:59:47;8.67;;;7.97;;
19087;SDS011;9676;50.916;13.352;2022-08-01T15:02:36;9.00;;;8.20;;
19087;SDS011;9676;50.916;13.352;2022-08-01T15:05:26;8.80;;;8.10;;
19087;SDS011;9676;50.916;13.352;2022-08-01T15:08:16;8.70;;;8.00;;
19087;SDS011;9676;50.916;13.352;2022-08-01T15:11:05;9.00;;;8.20;;
19087;SDS011;9676;50.916;13.352;2022-08-01T15:13:55;8.87;;;8.17;;
19087;SDS011;9676;50.916;13.352;2022-08-01T15:17:04;9.00;;;8.20;;
19087;SDS011;9676;50.916;13.352;2022-08-01T15:19:55;9.20;;;8.40;;
19087;SDS011;9676;50.916;13.352;2022-08-01T15:22:47;8.87;;;8.17;;
19087;SDS011;9676;50.916;13.352;2022-08-01T15:25:36;9.10;;;8.30;;
19087;SDS011;9676;50.916;13.352;2022-08-01T15:28:28;9.10;;;8.30;;
19087;SDS011;9676;50.916;13.352;2022-08-01T15:31:18;8.93;;;8.23;;
19087;SDS011;9676;50.916;13.352;2022-08-01T15:34:08;13.93;;;10.90;;
19087;SDS011;9676;50.916;13.352;2022-08-01T15:36:58;10.70;;;9.60;;
19087;SDS011;9676;50.916;13.352;2022-08-01T15:39:48;9.87;;;8.97;;
19087;SDS011;9676;50.916;13.352;2022-08-01T15:42:42;9.40;;;8.60;;
19087;SDS011;9676;50.916;13.352;2022-08-01T15:45:33;9.60;;;8.70;;
19087;SDS011;9676;50.916;13.352;2022-08-01T15:48:38;9.23;;;8.43;;
19087;SDS011;9676;50.916;13.352;2022-08-01T15:51:29;11.10;;;8.30;;
19087;SDS011;9676;50.916;13.352;2022-08-01T15:54:18;9.60;;;8.60;;
19087;SDS011;9676;50.916;13.352;2022-08-01T15:57:08;9.20;;;8.30;;
19087;SDS011;9676;50.916;13.352;2022-08-01T15:59:57;9.00;;;8.10;;
19087;SDS011;9676;50.916;13.352;2022-08-01T16:02:47;9.00;;;8.20;;
19087;SDS011;9676;50.916;13.352;2022-08-01T16:05:36;8.80;;;8.00;;
19087;SDS011;9676;50.916;13.352;2022-08-01T16:08:31;9.00;;;8.20;;
19087;SDS011;9676;50.916;13.352;2022-08-01T16:11:21;10.40;;;9.40;;
19087;SDS011;9676;50.916;13.352;2022-08-01T16:14:14;10.03;;;9.13;;
19087;SDS011;9676;50.916;13.352;2022-08-01T16:17:03;9.30;;;8.50;;
19087;SDS011;9676;50.916;13.352;2022-08-01T16:19:53;9.10;;;8.30;;
19087;SDS011;9676;50.916;13.352;2022-08-01T16:22:42;8.90;;;8.20;;
19087;SDS011;9676;50.916;13.352;2022-08-01T16:25:33;9.10;;;8.30;;
19087;SDS011;9676;50.916;13.352;2022-08-01T16:28:23;9.37;;;8.47;;
19087;SDS011;9676;50.916;13.352;2022-08-01T16:31:12;9.23;;;8.43;;
19087;SDS011;9676;50.916;13.352;2022-08-01T16:34:22;8.83;;;8.13;;
19087;SDS011;9676;50.916;13.352;2022-08-01T16:37:11;8.90;;;8.10;;
19087;SDS011;9676;50.916;13.352;2022-08-01T16:40:01;8.80;;;8.10;;
19087;SDS011;9676;50.916;13.352;2022-08-01T16:42:52;9.23;;;8.43;;
19087;SDS011;9676;50.916;13.352;2022-08-01T16:45:45;8.60;;;7.90;;
19087;SDS011;9676;50.916;13.352;2022-08-01T16:48:34;9.10;;;8.30;;
19087;SDS011;9676;50.916;13.352;2022-08-01T16:51:24;8.93;;;8.17;;
19087;SDS011;9676;50.916;13.352;2022-08-01T16:54:13;9.37;;;8.50;;
19087;SDS011;9676;50.916;13.352;2022-08-01T16:57:12;8.80;;;8.00;;
19087;SDS011;9676;50.916;13.352;2022-08-01T17:00:05;9.00;;;8.17;;
19087;SDS011;9676;50.916;13.352;2022-08-01T17:03:08;9.20;;;8.40;;
19087;SDS011;9676;50.916;13.352;2022-08-01T17:06:18;8.70;;;8.00;;
19087;SDS011;9676;50.916;13.352;2022-08-01T17:09:08;9.00;;;8.20;;
19087;SDS011;9676;50.916;13.352;2022-08-01T17:11:58;9.07;;;8.30;;
19087;SDS011;9676;50.916;13.352;2022-08-01T17:14:47;8.77;;;8.07;;
19087;SDS011;9676;50.916;13.352;2022-08-01T17:17:38;8.87;;;8.17;;
19087;SDS011;9676;50.916;13.352;2022-08-01T17:20:28;9.00;;;8.20;;
19087;SDS011;9676;50.916;13.352;2022-08-01T17:23:18;9.00;;;8.20;;
19087;SDS011;9676;50.916;13.352;2022-08-01T17:26:07;8.70;;;8.00;;